createdAt,value
2023-03-19T00:01:53.268Z,73.09
2023-03-19T00:04:41.788Z,72.82
2023-03-19T00:07:32.221Z,73.64
2023-03-19T00:10:20.574Z,73.72
2023-03-19T00:13:10.270Z,73.45
2023-03-19T00:16:00.110Z,73.51
2023-03-19T00:18:49.299Z,72.93
2023-03-19T00:21:37.877Z,73.89
2023-03-19T00:24:26.689Z,74.05
2023-03-19T00:27:15.092Z,74.04
2023-03-19T00:30:04.876Z,74.33
2023-03-19T00:32:55.125Z,73.21
2023-03-19T00:35:43.659Z,73.70
2023-03-19T00:38:32.062Z,73.57
2023-03-19T00:41:20.829Z,72.08
2023-03-19T00:44:09.212Z,73.50
2023-03-19T00:46:57.634Z,73.31
2023-03-19T00:49:47.398Z,73.29
2023-03-19T00:52:35.865Z,73.42
2023-03-19T00:55:25.669Z,72.95
2023-03-19T00:58:14.376Z,72.80
2023-03-19T01:01:03.606Z,74.13
2023-03-19T01:03:52.072Z,75.78
2023-03-19T01:06:41.907Z,76.50
2023-03-19T01:09:30.400Z,75.45
2023-03-19T01:12:19.488Z,75.05
2023-03-19T01:15:09.129Z,74.57
2023-03-19T01:17:57.523Z,74.83
2023-03-19T01:20:45.907Z,75.09
2023-03-19T01:23:36.179Z,74.91
2023-03-19T01:26:24.555Z,75.23
2023-03-19T01:29:17.152Z,75.04
2023-03-19T01:32:06.114Z,74.67
2023-03-19T01:35:20.981Z,75.34
2023-03-19T01:38:11.128Z,76.04
2023-03-19T01:41:01.640Z,75.16
2023-03-19T01:43:51.270Z,75.58
2023-03-19T01:46:59.096Z,74.74
2023-03-19T01:49:57.640Z,74.88
2023-03-19T01:52:46.184Z,74.93
2023-03-19T01:56:13.384Z,75.02
2023-03-19T01:59:37.175Z,75.40
2023-03-19T02:02:33.247Z,74.58
2023-03-19T02:05:29.184Z,73.96
2023-03-19T02:08:24.887Z,74.12
2023-03-19T02:11:15.850Z,74.23
2023-03-19T02:14:04.477Z,74.36
2023-03-19T02:16:53.104Z,74.14
2023-03-19T02:19:48.415Z,74.04
2023-03-19T02:22:37.934Z,74.53
2023-03-19T02:25:29.650Z,75.33
2023-03-19T02:28:20.643Z,75.03
2023-03-19T02:31:11.000Z,75.26
2023-03-19T02:34:04.154Z,77.79
2023-03-19T02:36:54.911Z,79.84
2023-03-19T02:39:50.844Z,80.40
2023-03-19T02:42:39.259Z,80.95
2023-03-19T02:45:30.666Z,81.96
2023-03-19T02:48:19.059Z,82.69
2023-03-19T02:51:08.670Z,83.27
2023-03-19T02:53:57.121Z,85.63
2023-03-19T02:56:46.226Z,84.03
2023-03-19T02:59:34.782Z,83.61
2023-03-19T03:02:24.694Z,82.84
2023-03-19T03:05:13.558Z,81.96
2023-03-19T03:08:03.241Z,80.98
2023-03-19T03:10:51.702Z,80.49
2023-03-19T03:13:40.244Z,80.06
2023-03-19T03:16:28.821Z,80.29
2023-03-19T03:19:19.405Z,79.90
2023-03-19T03:22:09.155Z,79.80
2023-03-19T03:24:57.613Z,79.78
2023-03-19T03:27:46.254Z,79.85
2023-03-19T03:30:34.996Z,79.77
2023-03-19T03:33:23.555Z,79.64
2023-03-19T03:36:14.128Z,79.23
2023-03-19T03:39:02.514Z,78.45
2023-03-19T03:41:51.646Z,79.01
2023-03-19T03:44:40.674Z,78.47
2023-03-19T03:47:29.172Z,78.26
2023-03-19T03:50:17.623Z,78.46
2023-03-19T03:53:09.582Z,78.19
2023-03-19T03:55:58.107Z,78.90
2023-03-19T03:58:48.324Z,81.35
2023-03-19T04:01:37.115Z,83.11
2023-03-19T04:04:26.621Z,83.98
2023-03-19T04:07:15.193Z,82.73
2023-03-19T04:10:11.910Z,81.40
2023-03-19T04:13:00.446Z,80.25
2023-03-19T04:15:50.964Z,80.85
2023-03-19T04:18:39.648Z,80.75
2023-03-19T04:21:29.757Z,81.83
2023-03-19T04:24:18.328Z,82.97
2023-03-19T04:27:08.670Z,83.03
2023-03-19T04:29:58.474Z,83.74
2023-03-19T04:32:47.651Z,85.53
2023-03-19T04:35:36.992Z,86.45
2023-03-19T04:38:27.733Z,86.05
2023-03-19T04:41:16.974Z,87.21
2023-03-19T04:44:19.408Z,88.04
2023-03-19T04:47:08.107Z,86.63
2023-03-19T04:50:10.682Z,87.50
2023-03-19T04:52:59.086Z,86.88
2023-03-19T04:55:47.953Z,87.63
2023-03-19T04:58:38.929Z,87.57
2023-03-19T05:01:28.769Z,86.00
2023-03-19T05:04:21.308Z,85.93
2023-03-19T05:07:10.865Z,85.19
2023-03-19T05:09:59.594Z,85.00
2023-03-19T05:12:47.939Z,84.44
2023-03-19T05:15:36.547Z,83.52
2023-03-19T05:18:29.690Z,83.45
2023-03-19T05:21:18.470Z,82.74
2023-03-19T05:24:07.523Z,83.49
2023-03-19T05:26:58.251Z,85.45
2023-03-19T05:29:58.294Z,84.58
2023-03-19T05:33:22.540Z,84.40
2023-03-19T05:36:13.772Z,83.16
2023-03-19T05:39:13.879Z,83.42
2023-03-19T05:42:04.518Z,82.87
2023-03-19T05:44:53.075Z,83.01
2023-03-19T05:47:49.226Z,82.75
2023-03-19T05:50:40.081Z,82.66
2023-03-19T05:53:43.315Z,82.46
2023-03-19T05:56:50.366Z,82.25
2023-03-19T06:00:01.759Z,81.92
2023-03-19T06:02:55.979Z,83.75
2023-03-19T06:06:22.812Z,85.65
2023-03-19T06:09:15.383Z,85.80
2023-03-19T06:12:07.079Z,84.42
2023-03-19T06:15:15.477Z,84.46
2023-03-19T06:18:07.405Z,84.98
2023-03-19T06:20:56.484Z,86.38
2023-03-19T06:23:45.077Z,85.74
2023-03-19T06:26:38.823Z,85.21
2023-03-19T06:29:33.941Z,84.89
2023-03-19T06:32:35.058Z,86.07
2023-03-19T06:35:29.119Z,86.07
2023-03-19T06:38:17.575Z,86.00
2023-03-19T06:41:06.213Z,85.74
2023-03-19T06:43:56.187Z,88.05
2023-03-19T06:46:44.561Z,88.45
2023-03-19T06:49:32.934Z,88.71
2023-03-19T06:52:21.290Z,89.23
2023-03-19T06:55:10.197Z,88.34
2023-03-19T06:57:58.546Z,87.81
2023-03-19T07:00:48.306Z,87.81
2023-03-19T07:03:36.666Z,87.19
2023-03-19T07:06:24.970Z,87.13
2023-03-19T07:09:13.995Z,86.56
2023-03-19T07:12:02.317Z,85.73
2023-03-19T07:14:51.173Z,85.25
2023-03-19T07:17:40.979Z,85.45
2023-03-19T07:20:29.877Z,85.15
2023-03-19T07:23:18.824Z,84.46
2023-03-19T07:26:07.202Z,84.65
2023-03-19T07:28:55.630Z,84.52
2023-03-19T07:31:44.054Z,84.42
2023-03-19T07:34:33.835Z,84.83
2023-03-19T07:37:22.662Z,84.37
2023-03-19T07:40:12.652Z,83.43
2023-03-19T07:43:00.984Z,83.26
2023-03-19T07:45:49.435Z,82.50
2023-03-19T07:48:38.182Z,83.07
2023-03-19T07:51:27.972Z,83.31
2023-03-19T07:54:16.452Z,82.43
2023-03-19T07:57:04.927Z,82.66
2023-03-19T07:59:53.290Z,82.77
2023-03-19T08:02:42.847Z,81.51
2023-03-19T08:05:31.324Z,81.44
2023-03-19T08:08:21.122Z,81.26
2023-03-19T08:11:09.652Z,81.55
2023-03-19T08:13:58.081Z,81.67
2023-03-19T08:16:46.426Z,81.51
2023-03-19T08:19:34.741Z,81.10
2023-03-19T08:22:23.374Z,81.69
2023-03-19T08:25:13.633Z,81.55
2023-03-19T08:28:02.320Z,80.72
2023-03-19T08:30:50.639Z,80.07
2023-03-19T08:33:39.549Z,80.29
2023-03-19T08:36:28.171Z,79.69
2023-03-19T08:39:16.624Z,80.56
2023-03-19T08:42:06.622Z,80.27
2023-03-19T08:44:54.921Z,79.05
2023-03-19T08:47:43.941Z,79.96
2023-03-19T08:50:33.741Z,80.03
2023-03-19T08:53:22.252Z,79.42
2023-03-19T08:56:10.741Z,80.85
2023-03-19T08:59:00.453Z,78.62
2023-03-19T09:01:52.403Z,78.50
2023-03-19T09:04:41.984Z,78.53
2023-03-19T09:07:30.610Z,77.17
2023-03-19T09:10:19.245Z,78.52
2023-03-19T09:13:07.574Z,77.49
2023-03-19T09:15:57.371Z,77.59
2023-03-19T09:18:45.799Z,76.63
2023-03-19T09:21:34.178Z,76.25
2023-03-19T09:24:22.689Z,75.30
2023-03-19T09:27:11.101Z,75.60
2023-03-19T09:29:59.443Z,75.62
2023-03-19T09:32:49.253Z,76.21
2023-03-19T09:35:39.758Z,73.95
2023-03-19T09:38:28.489Z,74.17
2023-03-19T09:41:23.039Z,74.24
2023-03-19T09:44:14.315Z,74.35
2023-03-19T09:47:11.614Z,73.33
2023-03-19T09:50:04.365Z,73.18
2023-03-19T09:52:59.242Z,73.25
2023-03-19T09:55:50.012Z,72.98
2023-03-19T09:58:38.520Z,72.93
2023-03-19T10:01:28.821Z,73.06
2023-03-19T10:04:42.621Z,72.21
2023-03-19T10:07:43.151Z,73.50
2023-03-19T10:10:48.496Z,74.24
2023-03-19T10:13:46.385Z,76.35
2023-03-19T10:16:36.020Z,76.30
2023-03-19T10:19:28.220Z,76.75
2023-03-19T10:22:19.436Z,76.88
2023-03-19T10:25:12.197Z,75.76
2023-03-19T10:28:03.309Z,73.96
2023-03-19T10:30:58.288Z,74.84
2023-03-19T10:33:53.407Z,73.19
2023-03-19T10:36:41.798Z,73.46
2023-03-19T10:39:32.221Z,72.67
2023-03-19T10:42:33.375Z,72.10
2023-03-19T10:45:26.772Z,71.58
2023-03-19T10:48:17.958Z,71.00
2023-03-19T10:51:06.834Z,71.85
2023-03-19T10:53:56.923Z,70.92
2023-03-19T10:56:47.472Z,70.55
2023-03-19T10:59:38.864Z,69.76
2023-03-19T11:02:31.148Z,70.63
2023-03-19T11:05:29.864Z,70.81
2023-03-19T11:08:34.895Z,70.71
2023-03-19T11:11:26.382Z,69.83
2023-03-19T11:14:17.106Z,70.53
2023-03-19T11:17:16.073Z,69.01
2023-03-19T11:20:16.895Z,68.70
2023-03-19T11:23:12.108Z,68.86
2023-03-19T11:26:02.941Z,67.18
2023-03-19T11:28:52.256Z,67.86
2023-03-19T11:31:44.485Z,65.78
2023-03-19T11:34:37.459Z,65.45
2023-03-19T11:37:31.687Z,67.59
2023-03-19T11:40:25.240Z,65.46
2023-03-19T11:43:39.059Z,65.93
2023-03-19T11:46:46.243Z,65.09
2023-03-19T11:50:02.846Z,66.54
2023-03-19T11:53:15.824Z,65.75
2023-03-19T11:56:11.505Z,66.35
2023-03-19T11:59:18.176Z,65.72
2023-03-19T12:02:34.169Z,66.70
2023-03-19T12:05:26.855Z,65.93
2023-03-19T12:08:24.396Z,64.73
2023-03-19T12:11:19.142Z,66.58
2023-03-19T12:14:18.508Z,67.46
2023-03-19T12:17:19.174Z,66.64
2023-03-19T12:20:40.528Z,67.14
2023-03-19T12:23:37.627Z,66.93
2023-03-19T12:26:34.183Z,67.42
2023-03-19T12:29:25.834Z,68.34
2023-03-19T12:32:30.460Z,67.60
2023-03-19T12:35:20.944Z,68.20
2023-03-19T12:38:15.002Z,68.30
2023-03-19T12:41:07.750Z,68.30
2023-03-19T12:43:58.676Z,67.80
2023-03-19T12:46:51.163Z,68.75
2023-03-19T12:49:43.300Z,67.03
2023-03-19T12:52:36.805Z,67.61
2023-03-19T12:55:36.737Z,65.92
2023-03-19T12:58:31.312Z,65.52
2023-03-19T13:01:24.797Z,67.65
2023-03-19T13:04:15.527Z,65.32
2023-03-19T13:07:08.210Z,65.26
2023-03-19T13:10:00.672Z,64.36
2023-03-19T13:12:51.946Z,62.32
2023-03-19T13:15:42.468Z,59.69
2023-03-19T13:18:38.269Z,59.15
2023-03-19T13:21:30.273Z,60.49
2023-03-19T13:24:23.006Z,60.57
2023-03-19T13:27:16.276Z,60.96
2023-03-19T13:30:20.652Z,61.01
2023-03-19T13:33:15.584Z,62.53
2023-03-19T13:36:06.466Z,61.42
2023-03-19T13:38:55.208Z,60.96
2023-03-19T13:41:54.889Z,61.07
2023-03-19T13:44:50.176Z,60.86
2023-03-19T13:47:43.366Z,61.09
2023-03-19T13:50:34.270Z,61.11
2023-03-19T13:53:34.900Z,60.93
2023-03-19T13:56:29.902Z,61.44
2023-03-19T13:59:27.076Z,61.28
2023-03-19T14:02:50.722Z,62.21
2023-03-19T14:05:39.561Z,61.25
2023-03-19T14:08:31.547Z,60.73
2023-03-19T14:11:24.285Z,61.44
2023-03-19T14:14:16.185Z,60.41
2023-03-19T14:17:05.761Z,61.68
2023-03-19T14:19:55.805Z,61.76
2023-03-19T14:22:56.565Z,62.47
2023-03-19T14:25:58.016Z,62.16
2023-03-19T14:28:58.892Z,63.07
2023-03-19T14:31:50.201Z,64.78
2023-03-19T14:34:40.394Z,65.13
2023-03-19T14:37:36.374Z,66.40
2023-03-19T14:40:27.587Z,66.54
2023-03-19T14:43:19.271Z,67.49
2023-03-19T14:46:10.254Z,66.51
2023-03-19T14:49:29.197Z,66.30
2023-03-19T14:52:19.180Z,65.94
2023-03-19T14:55:12.622Z,65.69
2023-03-19T14:58:02.129Z,65.88
2023-03-19T15:00:52.051Z,65.11
2023-03-19T15:03:40.463Z,65.01
2023-03-19T15:06:32.794Z,64.96
2023-03-19T15:09:23.496Z,62.39
2023-03-19T15:12:31.290Z,60.62
2023-03-19T15:15:27.612Z,60.96
2023-03-19T15:18:16.749Z,60.01
2023-03-19T15:21:05.999Z,59.00
2023-03-19T15:23:54.393Z,57.22
2023-03-19T15:26:43.053Z,57.43
2023-03-19T15:29:33.674Z,55.06
2023-03-19T15:32:52.178Z,55.23
2023-03-19T15:35:44.214Z,55.36
2023-03-19T15:38:36.595Z,55.24
2023-03-19T15:41:26.613Z,54.20
2023-03-19T15:44:18.601Z,52.69
2023-03-19T15:47:10.449Z,50.34
2023-03-19T15:50:00.755Z,49.68
2023-03-19T15:52:52.567Z,50.85
2023-03-19T15:55:41.063Z,49.35
2023-03-19T15:58:31.388Z,50.15
2023-03-19T16:01:20.353Z,50.72
2023-03-19T16:04:16.284Z,52.74
2023-03-19T16:07:05.426Z,52.75
2023-03-19T16:09:53.848Z,52.46
2023-03-19T16:12:42.504Z,53.18
2023-03-19T16:15:35.398Z,50.41
2023-03-19T16:18:25.705Z,50.52
2023-03-19T16:21:18.709Z,51.38
2023-03-19T16:24:15.299Z,51.63
2023-03-19T16:27:05.204Z,52.12
2023-03-19T16:29:58.586Z,52.07
2023-03-19T16:32:47.069Z,52.89
2023-03-19T16:35:36.719Z,53.15
2023-03-19T16:38:28.369Z,53.92
2023-03-19T16:41:19.434Z,54.68
2023-03-19T16:44:17.367Z,54.67
2023-03-19T16:47:10.150Z,54.62
2023-03-19T16:49:58.535Z,55.41
2023-03-19T16:52:48.056Z,55.57
2023-03-19T16:55:38.321Z,55.99
2023-03-19T16:58:29.608Z,56.14
2023-03-19T17:01:20.034Z,55.40
2023-03-19T17:04:12.783Z,55.20
2023-03-19T17:07:01.201Z,55.85
2023-03-19T17:09:49.954Z,55.43
2023-03-19T17:12:39.738Z,55.85
2023-03-19T17:15:30.268Z,56.36
2023-03-19T17:18:21.481Z,56.00
2023-03-19T17:21:13.158Z,56.44
2023-03-19T17:24:05.428Z,56.76
2023-03-19T17:26:54.711Z,57.06
2023-03-19T17:29:44.415Z,57.04
2023-03-19T17:32:32.940Z,57.52
2023-03-19T17:35:22.876Z,57.87
2023-03-19T17:38:12.962Z,57.93
2023-03-19T17:41:01.650Z,58.48
2023-03-19T17:43:50.043Z,58.80
2023-03-19T17:46:41.800Z,58.85
2023-03-19T17:49:32.419Z,58.86
2023-03-19T17:52:21.286Z,59.41
2023-03-19T17:55:16.607Z,59.40
2023-03-19T17:58:05.148Z,59.67
2023-03-19T18:00:53.732Z,60.27
2023-03-19T18:03:43.864Z,60.92
2023-03-19T18:06:34.758Z,61.21
2023-03-19T18:09:24.845Z,60.84
2023-03-19T18:12:13.179Z,61.37
2023-03-19T18:15:01.597Z,61.68
2023-03-19T18:17:52.652Z,61.80
2023-03-19T18:20:42.514Z,61.87
2023-03-19T18:23:31.328Z,62.17
2023-03-19T18:26:19.771Z,62.97
2023-03-19T18:29:09.110Z,63.16
2023-03-19T18:32:03.009Z,63.44
2023-03-19T18:34:51.450Z,64.23
2023-03-19T18:37:41.181Z,64.06
2023-03-19T18:40:31.979Z,64.38
2023-03-19T18:43:20.915Z,64.56
2023-03-19T18:46:11.827Z,64.66
2023-03-19T18:49:01.843Z,65.04
2023-03-19T18:52:01.743Z,64.96
2023-03-19T18:54:52.596Z,65.28
2023-03-19T18:57:52.328Z,65.57
2023-03-19T19:00:41.377Z,65.74
2023-03-19T19:03:31.684Z,65.75
2023-03-19T19:06:24.800Z,66.60
2023-03-19T19:09:16.921Z,66.52
2023-03-19T19:12:09.475Z,67.15
2023-03-19T19:14:58.762Z,66.93
2023-03-19T19:17:47.945Z,67.34
2023-03-19T19:20:36.417Z,68.64
2023-03-19T19:23:27.252Z,69.58
2023-03-19T19:26:22.839Z,69.88
2023-03-19T19:29:18.732Z,69.04
2023-03-19T19:32:10.690Z,70.82
2023-03-19T19:34:59.049Z,73.12
2023-03-19T19:37:47.410Z,73.54
2023-03-19T19:40:36.078Z,75.01
2023-03-19T19:43:25.915Z,75.00
2023-03-19T19:46:17.527Z,73.63
2023-03-19T19:49:06.560Z,73.38
2023-03-19T19:51:54.879Z,72.80
2023-03-19T19:54:43.251Z,72.36
2023-03-19T19:57:31.574Z,72.54
2023-03-19T20:00:22.508Z,73.37
2023-03-19T20:03:20.978Z,74.14
2023-03-19T20:06:09.577Z,74.91
2023-03-19T20:08:57.907Z,75.94
2023-03-19T20:11:47.842Z,78.53
2023-03-19T20:14:36.842Z,79.41
2023-03-19T20:17:25.310Z,79.61
2023-03-19T20:20:25.691Z,79.55
2023-03-19T20:23:15.232Z,78.50
2023-03-19T20:26:03.707Z,78.53
2023-03-19T20:28:52.184Z,77.51
2023-03-19T20:31:40.490Z,77.74
2023-03-19T20:34:38.690Z,76.40
2023-03-19T20:37:29.270Z,77.15
2023-03-19T20:40:18.299Z,76.92
2023-03-19T20:43:07.713Z,78.02
2023-03-19T20:45:56.674Z,77.55
2023-03-19T20:48:45.057Z,78.40
2023-03-19T20:51:33.688Z,77.84
2023-03-19T20:54:23.748Z,78.06
2023-03-19T20:57:14.581Z,77.65
2023-03-19T21:00:04.328Z,78.27
2023-03-19T21:02:54.072Z,78.44
2023-03-19T21:05:42.608Z,79.49
2023-03-19T21:08:33.515Z,79.29
2023-03-19T21:11:25.004Z,79.68
2023-03-19T21:14:15.948Z,80.83
2023-03-19T21:17:04.811Z,82.14
2023-03-19T21:19:53.139Z,82.32
2023-03-19T21:22:41.917Z,83.21
2023-03-19T21:25:31.539Z,84.29
2023-03-19T21:28:26.496Z,84.54
2023-03-19T21:31:18.122Z,84.08
2023-03-19T21:34:07.008Z,85.82
2023-03-19T21:36:55.497Z,86.58
2023-03-19T21:39:43.858Z,87.08
2023-03-19T21:42:33.143Z,87.53
2023-03-19T21:45:27.508Z,87.39
2023-03-19T21:48:24.531Z,87.12
2023-03-19T21:51:14.441Z,87.14
2023-03-19T21:54:02.880Z,87.66
2023-03-19T21:56:51.580Z,87.32
2023-03-19T21:59:40.287Z,87.38
2023-03-19T22:02:43.645Z,88.01
2023-03-19T22:05:32.034Z,87.82
2023-03-19T22:08:21.607Z,87.63
2023-03-19T22:11:15.130Z,87.31
2023-03-19T22:14:06.545Z,87.58
2023-03-19T22:16:56.648Z,86.45
2023-03-19T22:19:46.606Z,89.44
2023-03-19T22:22:35.025Z,89.02
2023-03-19T22:25:23.829Z,88.33
2023-03-19T22:28:17.789Z,91.41
2023-03-19T22:31:06.888Z,90.48
2023-03-19T22:33:55.322Z,90.53
2023-03-19T22:36:45.317Z,90.78
2023-03-19T22:39:33.732Z,90.90
2023-03-19T22:42:22.409Z,92.79
2023-03-19T22:45:16.495Z,93.76
2023-03-19T22:48:05.395Z,93.69
2023-03-19T22:50:53.963Z,92.81
2023-03-19T22:53:43.720Z,92.51
2023-03-19T22:56:32.222Z,92.99
2023-03-19T22:59:20.824Z,92.32
2023-03-19T23:02:10.690Z,91.59
2023-03-19T23:04:59.038Z,92.05
2023-03-19T23:07:47.386Z,91.46
2023-03-19T23:10:37.331Z,91.04
2023-03-19T23:13:26.176Z,90.40
2023-03-19T23:16:20.886Z,91.54
2023-03-19T23:19:11.987Z,92.00
2023-03-19T23:22:02.523Z,91.67
2023-03-19T23:24:50.986Z,91.02
2023-03-19T23:27:40.686Z,91.51
2023-03-19T23:30:31.555Z,91.91
2023-03-19T23:33:21.027Z,91.68
2023-03-19T23:36:10.192Z,91.09
2023-03-19T23:38:59.343Z,89.75
2023-03-19T23:41:49.374Z,89.67
2023-03-19T23:44:39.242Z,89.87
2023-03-19T23:47:28.077Z,89.35
2023-03-19T23:50:16.769Z,88.90
2023-03-19T23:53:05.180Z,89.17
2023-03-19T23:55:56.943Z,89.54
2023-03-19T23:58:45.928Z,89.54
